sensor_id;sensor_type;location;lat;lon;timestamp;P1;durP1;ratioP1;P2;durP2;ratioP2
56537;SDS011;42435;53.292;6.000;2023-07-28T00:00:56;26.00;;;10.82;;
56537;SDS011;42435;53.292;6.000;2023-07-28T00:03:21;27.65;;;10.60;;
56537;SDS011;42435;53.292;6.000;2023-07-28T00:05:47;22.73;;;9.48;;
56537;SDS011;42435;53.292;6.000;2023-07-28T00:08:14;26.42;;;10.50;;
56537;SDS011;42435;53.292;6.000;2023-07-28T00:10:43;30.92;;;10.70;;
56537;SDS011;42435;53.292;6.000;2023-07-28T00:13:08;24.90;;;9.65;;
56537;SDS011;42435;53.292;6.000;2023-07-28T00:15:35;30.38;;;10.35;;
56537;SDS011;42435;53.292;6.000;2023-07-28T00:18:00;33.55;;;10.95;;
56537;SDS011;42435;53.292;6.000;2023-07-28T00:20:27;32.17;;;10.85;;
56537;SDS011;42435;53.292;6.000;2023-07-28T00:22:53;36.42;;;11.65;;
56537;SDS011;42435;53.292;6.000;2023-07-28T00:25:18;36.03;;;11.55;;
56537;SDS011;42435;53.292;6.000;2023-07-28T00:27:44;28.50;;;10.38;;
56537;SDS011;42435;53.292;6.000;2023-07-28T00:30:10;37.70;;;11.93;;
56537;SDS011;42435;53.292;6.000;2023-07-28T00:32:36;42.65;;;12.55;;
56537;SDS011;42435;53.292;6.000;2023-07-28T00:35:02;35.13;;;11.68;;
56537;SDS011;42435;53.292;6.000;2023-07-28T00:37:31;35.17;;;11.98;;
56537;SDS011;42435;53.292;6.000;2023-07-28T00:39:56;38.00;;;12.15;;
56537;SDS011;42435;53.292;6.000;2023-07-28T00:42:22;38.28;;;11.90;;
56537;SDS011;42435;53.292;6.000;2023-07-28T00:44:47;33.30;;;11.32;;
56537;SDS011;42435;53.292;6.000;2023-07-28T00:47:13;35.22;;;11.70;;
56537;SDS011;42435;53.292;6.000;2023-07-28T00:49:39;38.58;;;11.75;;
56537;SDS011;42435;53.292;6.000;2023-07-28T00:52:06;39.95;;;12.00;;
56537;SDS011;42435;53.292;6.000;2023-07-28T00:54:32;36.63;;;10.68;;
56537;SDS011;42435;53.292;6.000;2023-07-28T00:56:59;34.50;;;11.40;;
56537;SDS011;42435;53.292;6.000;2023-07-28T00:59:25;35.03;;;11.85;;
56537;SDS011;42435;53.292;6.000;2023-07-28T01:01:51;35.88;;;11.80;;
56537;SDS011;42435;53.292;6.000;2023-07-28T01:04:17;35.90;;;11.35;;
56537;SDS011;42435;53.292;6.000;2023-07-28T01:09:58;35.17;;;10.40;;
56537;SDS011;42435;53.292;6.000;2023-07-28T01:12:37;32.10;;;10.73;;
56537;SDS011;42435;53.292;6.000;2023-07-28T01:15:02;31.33;;;10.32;;
56537;SDS011;42435;53.292;6.000;2023-07-28T01:17:28;26.45;;;10.27;;
56537;SDS011;42435;53.292;6.000;2023-07-28T01:19:54;30.08;;;11.05;;
56537;SDS011;42435;53.292;6.000;2023-07-28T01:22:26;34.00;;;11.02;;
56537;SDS011;42435;53.292;6.000;2023-07-28T01:28:03;32.38;;;12.45;;
56537;SDS011;42435;53.292;6.000;2023-07-28T01:30:29;35.13;;;11.30;;
56537;SDS011;42435;53.292;6.000;2023-07-28T01:32:55;38.65;;;11.73;;
56537;SDS011;42435;53.292;6.000;2023-07-28T01:35:21;27.50;;;11.77;;
56537;SDS011;42435;53.292;6.000;2023-07-28T01:37:47;31.23;;;11.73;;
56537;SDS011;42435;53.292;6.000;2023-07-28T01:40:18;39.22;;;12.85;;
56537;SDS011;42435;53.292;6.000;2023-07-28T01:42:44;39.30;;;12.20;;
56537;SDS011;42435;53.292;6.000;2023-07-28T01:45:10;34.67;;;12.40;;
56537;SDS011;42435;53.292;6.000;2023-07-28T01:47:36;41.13;;;13.15;;
56537;SDS011;42435;53.292;6.000;2023-07-28T01:50:02;35.80;;;12.20;;
56537;SDS011;42435;53.292;6.000;2023-07-28T01:52:28;36.85;;;11.95;;
56537;SDS011;42435;53.292;6.000;2023-07-28T01:54:53;32.97;;;11.95;;
56537;SDS011;42435;53.292;6.000;2023-07-28T01:57:19;34.00;;;12.93;;
56537;SDS011;42435;53.292;6.000;2023-07-28T01:59:45;32.88;;;12.43;;
56537;SDS011;42435;53.292;6.000;2023-07-28T02:02:10;42.25;;;12.70;;
56537;SDS011;42435;53.292;6.000;2023-07-28T02:04:36;35.67;;;12.18;;
56537;SDS011;42435;53.292;6.000;2023-07-28T02:07:01;39.05;;;12.25;;
56537;SDS011;42435;53.292;6.000;2023-07-28T02:09:27;32.92;;;13.52;;
56537;SDS011;42435;53.292;6.000;2023-07-28T02:11:52;38.15;;;12.50;;
56537;SDS011;42435;53.292;6.000;2023-07-28T02:14:18;36.33;;;12.18;;
56537;SDS011;42435;53.292;6.000;2023-07-28T02:16:44;34.50;;;11.73;;
56537;SDS011;42435;53.292;6.000;2023-07-28T02:19:09;27.42;;;10.50;;
56537;SDS011;42435;53.292;6.000;2023-07-28T02:21:35;35.00;;;11.40;;
56537;SDS011;42435;53.292;6.000;2023-07-28T02:24:00;28.02;;;10.30;;
56537;SDS011;42435;53.292;6.000;2023-07-28T02:26:26;26.65;;;9.77;;
56537;SDS011;42435;53.292;6.000;2023-07-28T02:28:52;33.00;;;10.48;;
56537;SDS011;42435;53.292;6.000;2023-07-28T02:31:17;31.50;;;9.88;;
56537;SDS011;42435;53.292;6.000;2023-07-28T02:33:43;33.22;;;9.52;;
56537;SDS011;42435;53.292;6.000;2023-07-28T02:36:08;21.88;;;9.38;;
56537;SDS011;42435;53.292;6.000;2023-07-28T02:38:34;28.42;;;9.85;;
56537;SDS011;42435;53.292;6.000;2023-07-28T02:41:00;32.33;;;9.68;;
56537;SDS011;42435;53.292;6.000;2023-07-28T02:43:25;31.33;;;10.38;;
56537;SDS011;42435;53.292;6.000;2023-07-28T02:45:54;29.85;;;9.32;;
56537;SDS011;42435;53.292;6.000;2023-07-28T02:48:20;24.35;;;8.23;;
56537;SDS011;42435;53.292;6.000;2023-07-28T02:50:48;28.38;;;8.63;;
56537;SDS011;42435;53.292;6.000;2023-07-28T02:53:15;29.23;;;9.05;;
56537;SDS011;42435;53.292;6.000;2023-07-28T02:55:41;21.52;;;8.32;;
56537;SDS011;42435;53.292;6.000;2023-07-28T02:58:08;28.33;;;8.80;;
56537;SDS011;42435;53.292;6.000;2023-07-28T03:00:36;32.22;;;10.65;;
56537;SDS011;42435;53.292;6.000;2023-07-28T03:03:03;28.52;;;9.48;;
56537;SDS011;42435;53.292;6.000;2023-07-28T03:05:30;23.02;;;8.60;;
56537;SDS011;42435;53.292;6.000;2023-07-28T03:07:57;29.88;;;9.52;;
56537;SDS011;42435;53.292;6.000;2023-07-28T03:10:22;25.50;;;8.70;;
56537;SDS011;42435;53.292;6.000;2023-07-28T03:12:48;22.42;;;8.48;;
56537;SDS011;42435;53.292;6.000;2023-07-28T03:15:14;26.00;;;9.07;;
56537;SDS011;42435;53.292;6.000;2023-07-28T03:17:39;18.30;;;7.90;;
56537;SDS011;42435;53.292;6.000;2023-07-28T03:20:05;20.55;;;7.75;;
56537;SDS011;42435;53.292;6.000;2023-07-28T03:22:31;29.40;;;9.63;;
56537;SDS011;42435;53.292;6.000;2023-07-28T03:24:56;24.50;;;8.90;;
56537;SDS011;42435;53.292;6.000;2023-07-28T03:27:22;24.70;;;9.10;;
56537;SDS011;42435;53.292;6.000;2023-07-28T03:29:48;24.20;;;8.98;;
56537;SDS011;42435;53.292;6.000;2023-07-28T03:32:13;31.20;;;8.63;;
56537;SDS011;42435;53.292;6.000;2023-07-28T03:34:39;23.50;;;8.05;;
56537;SDS011;42435;53.292;6.000;2023-07-28T03:37:05;26.95;;;8.15;;
56537;SDS011;42435;53.292;6.000;2023-07-28T03:39:30;22.23;;;7.93;;
56537;SDS011;42435;53.292;6.000;2023-07-28T03:41:56;18.20;;;7.85;;
56537;SDS011;42435;53.292;6.000;2023-07-28T03:44:22;25.38;;;8.65;;
56537;SDS011;42435;53.292;6.000;2023-07-28T03:46:48;29.05;;;8.52;;
56537;SDS011;42435;53.292;6.000;2023-07-28T03:49:13;21.25;;;8.35;;
56537;SDS011;42435;53.292;6.000;2023-07-28T03:51:39;23.42;;;8.23;;
56537;SDS011;42435;53.292;6.000;2023-07-28T03:54:05;21.60;;;8.73;;
56537;SDS011;42435;53.292;6.000;2023-07-28T03:56:30;22.90;;;8.75;;
56537;SDS011;42435;53.292;6.000;2023-07-28T03:58:56;18.65;;;8.23;;
56537;SDS011;42435;53.292;6.000;2023-07-28T04:01:21;18.95;;;8.52;;
56537;SDS011;42435;53.292;6.000;2023-07-28T04:03:47;20.02;;;8.45;;
56537;SDS011;42435;53.292;6.000;2023-07-28T04:06:13;20.88;;;7.63;;
56537;SDS011;42435;53.292;6.000;2023-07-28T04:08:39;19.30;;;7.50;;
56537;SDS011;42435;53.292;6.000;2023-07-28T04:11:05;17.25;;;7.05;;
56537;SDS011;42435;53.292;6.000;2023-07-28T04:13:31;15.70;;;6.85;;
56537;SDS011;42435;53.292;6.000;2023-07-28T04:15:57;19.23;;;6.35;;
56537;SDS011;42435;53.292;6.000;2023-07-28T04:18:23;16.10;;;6.53;;
56537;SDS011;42435;53.292;6.000;2023-07-28T04:20:48;16.75;;;7.80;;
56537;SDS011;42435;53.292;6.000;2023-07-28T04:23:14;17.05;;;7.40;;
56537;SDS011;42435;53.292;6.000;2023-07-28T04:25:40;15.95;;;7.93;;
56537;SDS011;42435;53.292;6.000;2023-07-28T04:28:05;18.40;;;8.55;;
56537;SDS011;42435;53.292;6.000;2023-07-28T04:30:32;14.48;;;8.38;;
56537;SDS011;42435;53.292;6.000;2023-07-28T04:32:58;15.32;;;9.15;;
56537;SDS011;42435;53.292;6.000;2023-07-28T04:35:23;26.98;;;10.10;;
56537;SDS011;42435;53.292;6.000;2023-07-28T04:37:49;17.23;;;10.07;;
56537;SDS011;42435;53.292;6.000;2023-07-28T04:40:15;17.60;;;10.25;;
56537;SDS011;42435;53.292;6.000;2023-07-28T04:42:40;19.25;;;10.00;;
56537;SDS011;42435;53.292;6.000;2023-07-28T04:45:06;17.40;;;10.30;;
56537;SDS011;42435;53.292;6.000;2023-07-28T04:47:32;16.63;;;10.70;;
56537;SDS011;42435;53.292;6.000;2023-07-28T04:49:57;23.25;;;11.40;;
56537;SDS011;42435;53.292;6.000;2023-07-28T04:52:23;18.77;;;11.38;;
56537;SDS011;42435;53.292;6.000;2023-07-28T04:54:49;22.65;;;12.63;;
56537;SDS011;42435;53.292;6.000;2023-07-28T04:57:14;15.18;;;11.43;;
56537;SDS011;42435;53.292;6.000;2023-07-28T04:59:40;21.52;;;12.38;;
56537;SDS011;42435;53.292;6.000;2023-07-28T05:02:06;17.17;;;12.02;;
56537;SDS011;42435;53.292;6.000;2023-07-28T05:04:31;19.88;;;13.00;;
56537;SDS011;42435;53.292;6.000;2023-07-28T05:06:57;15.52;;;12.13;;
56537;SDS011;42435;53.292;6.000;2023-07-28T05:09:22;18.50;;;12.82;;
56537;SDS011;42435;53.292;6.000;2023-07-28T05:11:48;18.75;;;13.10;;
56537;SDS011;42435;53.292;6.000;2023-07-28T05:14:14;17.80;;;12.90;;
56537;SDS011;42435;53.292;6.000;2023-07-28T05:16:39;17.00;;;12.27;;
56537;SDS011;42435;53.292;6.000;2023-07-28T05:19:05;20.02;;;13.63;;
56537;SDS011;42435;53.292;6.000;2023-07-28T05:21:32;17.50;;;12.77;;
56537;SDS011;42435;53.292;6.000;2023-07-28T05:23:58;19.77;;;13.07;;
56537;SDS011;42435;53.292;6.000;2023-07-28T05:26:24;20.85;;;14.30;;
56537;SDS011;42435;53.292;6.000;2023-07-28T05:28:49;18.02;;;12.65;;
56537;SDS011;42435;53.292;6.000;2023-07-28T05:31:15;16.75;;;13.15;;
56537;SDS011;42435;53.292;6.000;2023-07-28T05:33:41;15.63;;;12.68;;
56537;SDS011;42435;53.292;6.000;2023-07-28T05:36:07;18.15;;;12.65;;
56537;SDS011;42435;53.292;6.000;2023-07-28T05:38:32;17.65;;;12.23;;
56537;SDS011;42435;53.292;6.000;2023-07-28T05:40:59;16.92;;;13.02;;
56537;SDS011;42435;53.292;6.000;2023-07-28T05:43:26;19.67;;;13.35;;
56537;SDS011;42435;53.292;6.000;2023-07-28T05:45:52;20.25;;;12.95;;
56537;SDS011;42435;53.292;6.000;2023-07-28T05:48:18;20.33;;;12.50;;
56537;SDS011;42435;53.292;6.000;2023-07-28T05:50:43;17.80;;;13.00;;
56537;SDS011;42435;53.292;6.000;2023-07-28T05:53:09;18.48;;;12.02;;
56537;SDS011;42435;53.292;6.000;2023-07-28T05:55:34;18.80;;;12.35;;
56537;SDS011;42435;53.292;6.000;2023-07-28T05:58:00;14.88;;;10.77;;
56537;SDS011;42435;53.292;6.000;2023-07-28T06:00:25;13.98;;;10.70;;
56537;SDS011;42435;53.292;6.000;2023-07-28T06:02:52;16.90;;;11.27;;
56537;SDS011;42435;53.292;6.000;2023-07-28T06:05:18;19.92;;;11.68;;
56537;SDS011;42435;53.292;6.000;2023-07-28T06:07:44;17.73;;;11.32;;
56537;SDS011;42435;53.292;6.000;2023-07-28T06:10:09;18.38;;;11.77;;
56537;SDS011;42435;53.292;6.000;2023-07-28T06:12:35;20.85;;;12.73;;
56537;SDS011;42435;53.292;6.000;2023-07-28T06:15:02;17.65;;;12.60;;
56537;SDS011;42435;53.292;6.000;2023-07-28T06:17:28;16.20;;;12.25;;
56537;SDS011;42435;53.292;6.000;2023-07-28T06:19:53;18.70;;;10.93;;
56537;SDS011;42435;53.292;6.000;2023-07-28T06:22:20;17.33;;;10.80;;
56537;SDS011;42435;53.292;6.000;2023-07-28T06:24:45;21.05;;;12.30;;
56537;SDS011;42435;53.292;6.000;2023-07-28T06:27:11;17.88;;;10.95;;
56537;SDS011;42435;53.292;6.000;2023-07-28T06:29:36;17.17;;;10.02;;
56537;SDS011;42435;53.292;6.000;2023-07-28T06:32:02;14.77;;;10.13;;
56537;SDS011;42435;53.292;6.000;2023-07-28T06:34:27;16.98;;;11.13;;
56537;SDS011;42435;53.292;6.000;2023-07-28T06:36:53;15.70;;;11.02;;
56537;SDS011;42435;53.292;6.000;2023-07-28T06:39:19;16.85;;;10.75;;
56537;SDS011;42435;53.292;6.000;2023-07-28T06:41:45;17.88;;;10.63;;
56537;SDS011;42435;53.292;6.000;2023-07-28T06:44:10;18.10;;;11.45;;
56537;SDS011;42435;53.292;6.000;2023-07-28T06:46:36;13.15;;;9.80;;
56537;SDS011;42435;53.292;6.000;2023-07-28T06:49:02;14.68;;;10.32;;
56537;SDS011;42435;53.292;6.000;2023-07-28T06:51:28;15.70;;;11.02;;
56537;SDS011;42435;53.292;6.000;2023-07-28T06:53:54;12.65;;;9.90;;
56537;SDS011;42435;53.292;6.000;2023-07-28T06:56:21;11.93;;;8.32;;
56537;SDS011;42435;53.292;6.000;2023-07-28T06:58:47;10.55;;;7.88;;
56537;SDS011;42435;53.292;6.000;2023-07-28T07:01:12;13.60;;;8.52;;
56537;SDS011;42435;53.292;6.000;2023-07-28T07:03:38;11.95;;;8.50;;
56537;SDS011;42435;53.292;6.000;2023-07-28T07:06:03;15.27;;;10.27;;
56537;SDS011;42435;53.292;6.000;2023-07-28T07:08:29;15.30;;;10.63;;
56537;SDS011;42435;53.292;6.000;2023-07-28T07:10:54;17.05;;;11.20;;
56537;SDS011;42435;53.292;6.000;2023-07-28T07:13:20;17.13;;;10.93;;
56537;SDS011;42435;53.292;6.000;2023-07-28T07:15:45;15.30;;;10.40;;
56537;SDS011;42435;53.292;6.000;2023-07-28T07:18:11;13.98;;;9.38;;
56537;SDS011;42435;53.292;6.000;2023-07-28T07:20:40;14.38;;;10.00;;
56537;SDS011;42435;53.292;6.000;2023-07-28T07:23:06;15.32;;;9.25;;
56537;SDS011;42435;53.292;6.000;2023-07-28T07:25:32;12.93;;;9.38;;
56537;SDS011;42435;53.292;6.000;2023-07-28T07:27:58;13.40;;;9.10;;
56537;SDS011;42435;53.292;6.000;2023-07-28T07:30:24;15.15;;;9.52;;
56537;SDS011;42435;53.292;6.000;2023-07-28T07:32:49;13.20;;;9.45;;
56537;SDS011;42435;53.292;6.000;2023-07-28T07:35:15;13.98;;;9.85;;
56537;SDS011;42435;53.292;6.000;2023-07-28T07:37:42;13.88;;;9.45;;
56537;SDS011;42435;53.292;6.000;2023-07-28T07:40:08;15.40;;;10.27;;
56537;SDS011;42435;53.292;6.000;2023-07-28T07:42:47;13.32;;;9.15;;
56537;SDS011;42435;53.292;6.000;2023-07-28T07:45:14;12.50;;;8.73;;
56537;SDS011;42435;53.292;6.000;2023-07-28T07:47:43;11.85;;;9.15;;
56537;SDS011;42435;53.292;6.000;2023-07-28T07:50:10;9.00;;;7.70;;
56537;SDS011;42435;53.292;6.000;2023-07-28T07:52:37;10.45;;;7.70;;
56537;SDS011;42435;53.292;6.000;2023-07-28T07:55:03;9.48;;;7.15;;
56537;SDS011;42435;53.292;6.000;2023-07-28T07:57:29;10.13;;;8.40;;
56537;SDS011;42435;53.292;6.000;2023-07-28T07:59:57;12.30;;;9.50;;
56537;SDS011;42435;53.292;6.000;2023-07-28T08:02:23;12.57;;;9.65;;
56537;SDS011;42435;53.292;6.000;2023-07-28T08:04:49;13.75;;;10.20;;
56537;SDS011;42435;53.292;6.000;2023-07-28T08:07:16;11.88;;;8.98;;
56537;SDS011;42435;53.292;6.000;2023-07-28T08:09:42;11.25;;;8.50;;
56537;SDS011;42435;53.292;6.000;2023-07-28T08:12:08;11.77;;;8.65;;
56537;SDS011;42435;53.292;6.000;2023-07-28T08:14:34;10.35;;;8.68;;
56537;SDS011;42435;53.292;6.000;2023-07-28T08:16:59;9.95;;;7.68;;
56537;SDS011;42435;53.292;6.000;2023-07-28T08:19:25;8.15;;;6.90;;
56537;SDS011;42435;53.292;6.000;2023-07-28T08:21:51;9.95;;;7.22;;
56537;SDS011;42435;53.292;6.000;2023-07-28T08:24:16;7.40;;;6.45;;
56537;SDS011;42435;53.292;6.000;2023-07-28T08:26:42;7.80;;;6.70;;
56537;SDS011;42435;53.292;6.000;2023-07-28T08:29:07;8.43;;;7.38;;
56537;SDS011;42435;53.292;6.000;2023-07-28T08:31:33;9.63;;;7.05;;
56537;SDS011;42435;53.292;6.000;2023-07-28T08:33:59;8.90;;;7.55;;
56537;SDS011;42435;53.292;6.000;2023-07-28T08:36:24;11.88;;;9.27;;
56537;SDS011;42435;53.292;6.000;2023-07-28T08:38:50;11.90;;;8.55;;
56537;SDS011;42435;53.292;6.000;2023-07-28T08:41:16;11.27;;;7.85;;
56537;SDS011;42435;53.292;6.000;2023-07-28T08:43:41;12.05;;;8.88;;
56537;SDS011;42435;53.292;6.000;2023-07-28T08:46:07;11.25;;;8.63;;
56537;SDS011;42435;53.292;6.000;2023-07-28T08:48:33;9.23;;;7.15;;
56537;SDS011;42435;53.292;6.000;2023-07-28T08:50:58;9.65;;;8.07;;
56537;SDS011;42435;53.292;6.000;2023-07-28T08:53:24;9.55;;;7.30;;
56537;SDS011;42435;53.292;6.000;2023-07-28T08:55:50;8.13;;;6.82;;
56537;SDS011;42435;53.292;6.000;2023-07-28T08:58:17;11.35;;;8.23;;
56537;SDS011;42435;53.292;6.000;2023-07-28T09:00:44;9.38;;;8.32;;
56537;SDS011;42435;53.292;6.000;2023-07-28T09:03:14;8.77;;;7.88;;
56537;SDS011;42435;53.292;6.000;2023-07-28T09:05:41;9.35;;;8.20;;
56537;SDS011;42435;53.292;6.000;2023-07-28T09:08:14;9.98;;;7.78;;
56537;SDS011;42435;53.292;6.000;2023-07-28T09:10:44;9.82;;;8.50;;
56537;SDS011;42435;53.292;6.000;2023-07-28T09:13:11;10.52;;;8.38;;
56537;SDS011;42435;53.292;6.000;2023-07-28T09:15:38;11.70;;;8.68;;
56537;SDS011;42435;53.292;6.000;2023-07-28T09:18:07;11.13;;;8.73;;
56537;SDS011;42435;53.292;6.000;2023-07-28T09:20:39;11.30;;;8.95;;
56537;SDS011;42435;53.292;6.000;2023-07-28T09:23:12;16.63;;;8.57;;
56537;SDS011;42435;53.292;6.000;2023-07-28T09:25:39;10.48;;;8.18;;
56537;SDS011;42435;53.292;6.000;2023-07-28T09:28:04;9.35;;;7.85;;
56537;SDS011;42435;53.292;6.000;2023-07-28T09:33:13;8.02;;;6.50;;
56537;SDS011;42435;53.292;6.000;2023-07-28T09:35:48;9.85;;;6.20;;
56537;SDS011;42435;53.292;6.000;2023-07-28T09:38:15;6.47;;;5.82;;
56537;SDS011;42435;53.292;6.000;2023-07-28T09:40:43;6.68;;;5.25;;
56537;SDS011;42435;53.292;6.000;2023-07-28T09:43:09;6.15;;;5.13;;
56537;SDS011;42435;53.292;6.000;2023-07-28T09:45:35;6.35;;;5.35;;
56537;SDS011;42435;53.292;6.000;2023-07-28T09:48:01;5.55;;;4.70;;
56537;SDS011;42435;53.292;6.000;2023-07-28T09:50:32;4.82;;;4.18;;
56537;SDS011;42435;53.292;6.000;2023-07-28T09:53:01;6.50;;;5.85;;
56537;SDS011;42435;53.292;6.000;2023-07-28T09:55:28;7.07;;;6.38;;
56537;SDS011;42435;53.292;6.000;2023-07-28T09:57:54;8.13;;;6.25;;
56537;SDS011;42435;53.292;6.000;2023-07-28T10:00:22;8.07;;;5.93;;
56537;SDS011;42435;53.292;6.000;2023-07-28T10:02:49;6.80;;;6.10;;
56537;SDS011;42435;53.292;6.000;2023-07-28T10:05:15;8.73;;;6.03;;
56537;SDS011;42435;53.292;6.000;2023-07-28T10:07:42;7.03;;;5.40;;
56537;SDS011;42435;53.292;6.000;2023-07-28T10:10:10;4.65;;;4.25;;
56537;SDS011;42435;53.292;6.000;2023-07-28T10:12:41;5.50;;;4.25;;
56537;SDS011;42435;53.292;6.000;2023-07-28T10:15:11;4.75;;;4.35;;
56537;SDS011;42435;53.292;6.000;2023-07-28T10:17:41;5.30;;;4.35;;
56537;SDS011;42435;53.292;6.000;2023-07-28T10:20:36;5.35;;;3.60;;
56537;SDS011;42435;53.292;6.000;2023-07-28T10:23:12;4.65;;;4.25;;
56537;SDS011;42435;53.292;6.000;2023-07-28T10:25:59;5.40;;;4.18;;
56537;SDS011;42435;53.292;6.000;2023-07-28T10:28:30;5.40;;;4.32;;
56537;SDS011;42435;53.292;6.000;2023-07-28T10:31:06;4.40;;;4.00;;
56537;SDS011;42435;53.292;6.000;2023-07-28T10:33:44;4.43;;;4.03;;
56537;SDS011;42435;53.292;6.000;2023-07-28T10:36:15;5.70;;;4.50;;
56537;SDS011;42435;53.292;6.000;2023-07-28T10:38:43;4.00;;;3.67;;
56537;SDS011;42435;53.292;6.000;2023-07-28T10:41:10;4.55;;;4.10;;
56537;SDS011;42435;53.292;6.000;2023-07-28T10:43:40;4.95;;;4.53;;
56537;SDS011;42435;53.292;6.000;2023-07-28T10:46:07;6.32;;;4.53;;
56537;SDS011;42435;53.292;6.000;2023-07-28T10:48:35;4.38;;;4.07;;
56537;SDS011;42435;53.292;6.000;2023-07-28T10:51:02;4.40;;;4.00;;
56537;SDS011;42435;53.292;6.000;2023-07-28T10:53:28;5.00;;;4.25;;
56537;SDS011;42435;53.292;6.000;2023-07-28T10:55:53;4.22;;;3.53;;
56537;SDS011;42435;53.292;6.000;2023-07-28T10:58:19;5.60;;;3.40;;
56537;SDS011;42435;53.292;6.000;2023-07-28T11:00:45;5.53;;;3.20;;
56537;SDS011;42435;53.292;6.000;2023-07-28T11:03:10;3.25;;;2.80;;
56537;SDS011;42435;53.292;6.000;2023-07-28T11:05:37;2.78;;;2.58;;
56537;SDS011;42435;53.292;6.000;2023-07-28T11:08:05;3.85;;;2.67;;
56537;SDS011;42435;53.292;6.000;2023-07-28T11:10:32;2.95;;;2.30;;
56537;SDS011;42435;53.292;6.000;2023-07-28T11:13:00;2.83;;;2.28;;
56537;SDS011;42435;53.292;6.000;2023-07-28T11:15:27;2.97;;;2.78;;
56537;SDS011;42435;53.292;6.000;2023-07-28T11:17:53;3.13;;;2.80;;
56537;SDS011;42435;53.292;6.000;2023-07-28T11:20:20;2.88;;;2.67;;
56537;SDS011;42435;53.292;6.000;2023-07-28T11:22:56;3.75;;;2.80;;
56537;SDS011;42435;53.292;6.000;2023-07-28T11:25:26;3.95;;;2.53;;
56537;SDS011;42435;53.292;6.000;2023-07-28T11:27:53;3.13;;;2.33;;
56537;SDS011;42435;53.292;6.000;2023-07-28T11:30:20;3.10;;;2.80;;
56537;SDS011;42435;53.292;6.000;2023-07-28T11:32:47;2.55;;;2.33;;
56537;SDS011;42435;53.292;6.000;2023-07-28T11:35:15;3.53;;;2.88;;
56537;SDS011;42435;53.292;6.000;2023-07-28T11:37:42;3.58;;;2.50;;
56537;SDS011;42435;53.292;6.000;2023-07-28T11:40:10;2.63;;;2.33;;
56537;SDS011;42435;53.292;6.000;2023-07-28T11:42:40;3.10;;;2.63;;
56537;SDS011;42435;53.292;6.000;2023-07-28T11:45:09;2.45;;;2.28;;
56537;SDS011;42435;53.292;6.000;2023-07-28T11:47:37;3.55;;;2.72;;
56537;SDS011;42435;53.292;6.000;2023-07-28T11:50:03;2.80;;;2.20;;
56537;SDS011;42435;53.292;6.000;2023-07-28T11:52:32;3.42;;;2.42;;
56537;SDS011;42435;53.292;6.000;2023-07-28T11:55:00;3.83;;;2.20;;
56537;SDS011;42435;53.292;6.000;2023-07-28T11:57:26;3.72;;;2.70;;
56537;SDS011;42435;53.292;6.000;2023-07-28T11:59:55;2.95;;;2.53;;
56537;SDS011;42435;53.292;6.000;2023-07-28T12:02:25;3.47;;;2.50;;
56537;SDS011;42435;53.292;6.000;2023-07-28T12:04:52;2.60;;;2.40;;
56537;SDS011;42435;53.292;6.000;2023-07-28T12:07:19;2.95;;;2.40;;
56537;SDS011;42435;53.292;6.000;2023-07-28T12:10:04;4.30;;;2.58;;
56537;SDS011;42435;53.292;6.000;2023-07-28T12:12:39;3.15;;;2.60;;
56537;SDS011;42435;53.292;6.000;2023-07-28T12:15:27;3.70;;;3.13;;
56537;SDS011;42435;53.292;6.000;2023-07-28T12:18:04;2.45;;;2.25;;
56537;SDS011;42435;53.292;6.000;2023-07-28T12:20:41;3.88;;;2.50;;
56537;SDS011;42435;53.292;6.000;2023-07-28T12:23:19;2.15;;;1.70;;
56537;SDS011;42435;53.292;6.000;2023-07-28T12:25:46;4.65;;;2.20;;
56537;SDS011;42435;53.292;6.000;2023-07-28T12:28:12;3.70;;;2.53;;
56537;SDS011;42435;53.292;6.000;2023-07-28T12:30:38;2.67;;;2.00;;
56537;SDS011;42435;53.292;6.000;2023-07-28T12:33:04;2.45;;;2.10;;
56537;SDS011;42435;53.292;6.000;2023-07-28T12:35:31;2.22;;;1.70;;
56537;SDS011;42435;53.292;6.000;2023-07-28T12:37:59;4.07;;;2.85;;
56537;SDS011;42435;53.292;6.000;2023-07-28T12:40:28;2.70;;;1.73;;
56537;SDS011;42435;53.292;6.000;2023-07-28T12:42:54;2.80;;;1.67;;
56537;SDS011;42435;53.292;6.000;2023-07-28T12:45:20;2.75;;;1.80;;
56537;SDS011;42435;53.292;6.000;2023-07-28T12:47:46;3.15;;;2.03;;
56537;SDS011;42435;53.292;6.000;2023-07-28T12:50:12;1.90;;;1.70;;
56537;SDS011;42435;53.292;6.000;2023-07-28T12:52:37;3.50;;;1.83;;
56537;SDS011;42435;53.292;6.000;2023-07-28T12:55:03;3.90;;;2.30;;
56537;SDS011;42435;53.292;6.000;2023-07-28T12:57:30;3.28;;;1.60;;
56537;SDS011;42435;53.292;6.000;2023-07-28T12:59:56;2.25;;;1.52;;
56537;SDS011;42435;53.292;6.000;2023-07-28T13:02:21;1.73;;;1.50;;
56537;SDS011;42435;53.292;6.000;2023-07-28T13:04:47;2.83;;;1.90;;
56537;SDS011;42435;53.292;6.000;2023-07-28T13:07:12;2.25;;;1.70;;
56537;SDS011;42435;53.292;6.000;2023-07-28T13:09:39;2.08;;;1.60;;
56537;SDS011;42435;53.292;6.000;2023-07-28T13:12:06;1.90;;;1.65;;
56537;SDS011;42435;53.292;6.000;2023-07-28T13:14:32;2.25;;;1.35;;
56537;SDS011;42435;53.292;6.000;2023-07-28T13:16:58;1.95;;;1.40;;
56537;SDS011;42435;53.292;6.000;2023-07-28T13:19:23;2.08;;;1.33;;
56537;SDS011;42435;53.292;6.000;2023-07-28T13:21:49;3.45;;;1.30;;
56537;SDS011;42435;53.292;6.000;2023-07-28T13:24:15;2.15;;;1.50;;
56537;SDS011;42435;53.292;6.000;2023-07-28T13:26:40;1.50;;;1.20;;
56537;SDS011;42435;53.292;6.000;2023-07-28T13:29:06;1.63;;;1.25;;
56537;SDS011;42435;53.292;6.000;2023-07-28T13:31:32;2.38;;;1.83;;
56537;SDS011;42435;53.292;6.000;2023-07-28T13:33:58;2.45;;;1.65;;
56537;SDS011;42435;53.292;6.000;2023-07-28T13:36:23;1.30;;;1.20;;
56537;SDS011;42435;53.292;6.000;2023-07-28T13:38:49;2.03;;;1.10;;
56537;SDS011;42435;53.292;6.000;2023-07-28T13:41:14;1.23;;;1.00;;
56537;SDS011;42435;53.292;6.000;2023-07-28T13:43:40;1.50;;;1.02;;
56537;SDS011;42435;53.292;6.000;2023-07-28T13:46:06;1.80;;;1.50;;
56537;SDS011;42435;53.292;6.000;2023-07-28T13:48:32;1.80;;;1.30;;
56537;SDS011;42435;53.292;6.000;2023-07-28T13:50:58;1.30;;;1.10;;
56537;SDS011;42435;53.292;6.000;2023-07-28T13:53:24;1.60;;;1.25;;
56537;SDS011;42435;53.292;6.000;2023-07-28T13:55:50;1.77;;;1.25;;
56537;SDS011;42435;53.292;6.000;2023-07-28T13:58:16;2.30;;;1.10;;
56537;SDS011;42435;53.292;6.000;2023-07-28T14:00:41;2.63;;;1.08;;
56537;SDS011;42435;53.292;6.000;2023-07-28T14:03:07;1.15;;;1.05;;
56537;SDS011;42435;53.292;6.000;2023-07-28T14:05:33;1.00;;;0.90;;
56537;SDS011;42435;53.292;6.000;2023-07-28T14:07:58;2.00;;;1.30;;
56537;SDS011;42435;53.292;6.000;2023-07-28T14:10:24;1.25;;;1.15;;
56537;SDS011;42435;53.292;6.000;2023-07-28T14:12:49;1.33;;;1.15;;
56537;SDS011;42435;53.292;6.000;2023-07-28T14:15:15;0.90;;;0.75;;
56537;SDS011;42435;53.292;6.000;2023-07-28T14:17:41;1.58;;;1.10;;
56537;SDS011;42435;53.292;6.000;2023-07-28T14:20:06;1.58;;;1.10;;
56537;SDS011;42435;53.292;6.000;2023-07-28T14:22:34;1.95;;;1.27;;
56537;SDS011;42435;53.292;6.000;2023-07-28T14:25:00;1.17;;;1.08;;
56537;SDS011;42435;53.292;6.000;2023-07-28T14:27:25;1.15;;;1.05;;
56537;SDS011;42435;53.292;6.000;2023-07-28T14:29:51;1.77;;;1.15;;
56537;SDS011;42435;53.292;6.000;2023-07-28T14:32:16;1.33;;;1.10;;
56537;SDS011;42435;53.292;6.000;2023-07-28T14:34:42;1.98;;;1.10;;
56537;SDS011;42435;53.292;6.000;2023-07-28T14:37:08;2.05;;;1.10;;
56537;SDS011;42435;53.292;6.000;2023-07-28T14:39:34;1.88;;;1.20;;
56537;SDS011;42435;53.292;6.000;2023-07-28T14:41:59;1.90;;;1.30;;